• Join FlightAware (Why Join?)
  • Login
  • US Flag 
02:41AM EDT


 

Airport Tracker/Info


-or-


 

Live Flight TrackerFlight Track Log ✈ N524NK ✈ 03-May-2013 ✈ KMSY - KDFW

Flight Track Log - Related Links

Times and Time Zones

All times are in EDT time to prevent confusion due to time zone crossing. See the N524NK flight status page for this flight to view local times or setup timezone preferences in your user account.

Time Position Orientation Groundspeed Altitude Reporting Facility
EDT Latitude Longitude Course Direction KTS MPH feet Rate Location/Type
04:05PM 29.9956 -90.2747 280° West 140 161 500  Level Houston Center
04:05PM 30.0008 -90.3106 280° West 142 163 2,100 1,860 Climbing Houston Center
04:06PM 30.0461 -90.3583 318° Northwest 240 276 4,000 2,760 Climbing Houston Center
04:07PM 30.0933 -90.4006 322° Northwest 292 336 7,200 3,840 Climbing Houston Center
04:08PM 30.1058 -90.4108 325° Northwest 256 295 8,000 3,000 Climbing Houston Center
04:09PM 30.1644 -90.4706 319° Northwest 273 314 11,100 3,000 Climbing Houston Center
04:10PM 30.2211 -90.5531 308° West 320 368 14,200 3,000 Climbing Houston Center
04:11PM 30.2817 -90.6378 310° West 338 389 17,300 3,000 Climbing Houston Center
04:12PM 30.3583 -90.7419 310° West 353 406 20,400 2,700 Climbing Houston Center
04:13PM 30.4250 -90.8319 311° West 364 419 23,000 2,220 Climbing Houston Center
04:14PM 30.4942 -90.9219 312° West 372 428 25,100 1,920 Climbing Houston Center
04:15PM 30.5656 -91.0128 312° West 380 437 27,000 1,560 Climbing Houston Center
04:16PM 30.6422 -91.1081 313° West 397 457 28,400 1,440 Climbing Houston Center
04:17PM 30.7003 -91.2172 302° West 401 461 30,000 1,740 Climbing Houston Center
04:18PM 30.7506 -91.3478 294° West 401 461 32,000 1,740 Climbing Houston Center
04:19PM 30.7989 -91.4639 296° West 399 459 33,600 1,560 Climbing Houston Center
04:20PM 30.8458 -91.5772 296° West 393 452 35,300 1,200 Climbing Houston Center
04:21PM 30.9031 -91.7147 296° West 392 451 36,100 720 Climbing Houston Center
04:22PM 30.9500 -91.8283 296° West 391 450 36,800 840 Climbing Houston Center
04:23PM 30.9975 -91.9453 295° West 397 457 37,900 540 Climbing Houston Center
04:24PM 31.0442 -92.0581 296° West 395 455 38,000  Climbing Houston Center
04:30PM 31.3332 -92.7695 296° West 405 466 38,100  Climbing FlightAware ADS-B
04:31PM 31.3750 -92.8740 295° West 407 468 38,000 -60 Descending FlightAware ADS-B
04:32PM 31.4379 -93.0318 295° West 406 467 38,000  Level FlightAware ADS-B
04:33PM 31.4674 -93.1053 295° West 406 467 38,000  Level FlightAware ADS-B
04:33PM 31.4911 -93.1651 295° West 405 466 38,000  Level FlightAware ADS-B
04:34PM 31.5362 -93.2788 295° West 406 467 38,000  Level FlightAware ADS-B
04:35PM 31.5622 -93.3451 295° West 405 466 38,000  Level FlightAware ADS-B
04:35PM 31.5903 -93.4163 295° West 410 472 38,000  Level FlightAware ADS-B
04:36PM 31.6143 -93.4771 295° West 413 475 38,000  Level FlightAware ADS-B
04:36PM 31.6387 -93.5389 295° West 414 476 38,000  Level FlightAware ADS-B
04:37PM 31.6693 -93.6166 295° West 412 474 38,000 -600 Level FlightAware ADS-B
04:38PM 31.7084 -93.7161 295° West 413 475 37,200 -1,020 Descending FlightAware ADS-B
04:38PM 31.7322 -93.7773 295° West 410 472 36,700 -1,020 Descending FlightAware ADS-B
04:39PM 31.7504 -93.8308 292° West 411 473 36,300 -780 Descending FlightAware ADS-B
04:39PM 31.7635 -93.8985 283° West 413 475 36,000 -300 Descending FlightAware ADS-B
04:40PM 31.7765 -93.9640 283° West 413 475 36,000  Level FlightAware ADS-B
04:40PM 31.7909 -94.0360 283° West 411 473 36,000  Level FlightAware ADS-B
04:41PM 31.8040 -94.1015 283° West 411 473 36,000  Level FlightAware ADS-B
04:41PM 31.8175 -94.1717 283° West 412 474 36,000  Level FlightAware ADS-B
04:41PM 31.8198 -94.1834 283° West 411 473 36,000  Level FlightAware ADS-B
04:42PM 31.8302 -94.2372 283° West 410 472 36,000  Level FlightAware ADS-B
04:42PM 31.8325 -94.2490 283° West 410 472 36,000  Level FlightAware ADS-B
04:42PM 31.8434 -94.3045 283° West 410 472 36,000  Level FlightAware ADS-B
04:43PM 31.8462 -94.3190 283° West 411 473 36,000  Level FlightAware ADS-B
04:43PM 31.8562 -94.3699 283° West 412 474 36,000  Level FlightAware ADS-B
04:43PM 31.8600 -94.3897 283° West 411 473 36,000  Level FlightAware ADS-B
04:43PM 31.8704 -94.4441 283° West 411 473 36,000  Level FlightAware ADS-B
04:44PM 31.8730 -94.4574 283° West 411 473 36,000  Level FlightAware ADS-B
04:44PM 31.8830 -94.5093 283° West 411 473 36,000  Level FlightAware ADS-B
04:44PM 31.8862 -94.5261 283° West 411 473 36,000  Level FlightAware ADS-B
04:45PM 31.8963 -94.5787 283° West 410 472 36,000  Level FlightAware ADS-B
04:45PM 31.8987 -94.5913 283° West 409 471 36,000 180 Level FlightAware ADS-B
04:45PM 31.9092 -94.6465 283° West 408 470 36,100  Climbing FlightAware ADS-B
04:45PM 31.9111 -94.6565 283° West 409 471 36,000 -240 Descending FlightAware ADS-B
04:46PM 31.9223 -94.7148 283° West 405 466 36,000  Level FlightAware ADS-B
04:46PM 31.9238 -94.7223 283° West 406 467 36,000 -780 Level FlightAware ADS-B
04:46PM 31.9351 -94.7815 283° West 403 464 35,600 -780 Descending FlightAware ADS-B
04:46PM 31.9361 -94.7871 282° West 403 464 35,600 -1,020 Level FlightAware ADS-B
04:47PM 31.9475 -94.8472 283° West 401 461 35,100 -1,020 Descending FlightAware ADS-B
04:47PM 31.9483 -94.8514 283° West 398 458 35,100 -1,020 Level FlightAware ADS-B
04:47PM 31.9597 -94.9102 283° West 391 450 34,600 -1,020 Descending FlightAware ADS-B
04:47PM 31.9605 -94.9146 282° West 391 450 34,600 -960 Level FlightAware ADS-B
04:48PM 31.9721 -94.9766 282° West 387 445 34,100 -1,020 Descending FlightAware ADS-B
04:48PM 31.9742 -94.9882 282° West 387 445 34,000 -1,020 Descending FlightAware ADS-B
04:48PM 31.9836 -95.0398 282° West 395 455 33,600 -1,020 Descending FlightAware ADS-B
04:48PM 31.9856 -95.0508 282° West 397 457 33,500 -1,020 Descending FlightAware ADS-B
04:49PM 31.9951 -95.1038 282° West 398 458 33,100 -1,020 Descending FlightAware ADS-B
04:49PM 31.9971 -95.1147 282° West 397 457 33,000 -1,020 Descending FlightAware ADS-B
04:49PM 32.0071 -95.1671 283° West 395 455 32,600 -1,020 Descending FlightAware ADS-B
04:50PM 32.0166 -95.2170 283° West 395 455 32,200 -960 Descending FlightAware ADS-B
04:50PM 32.0198 -95.2328 283° West 395 455 32,100 -900 Descending FlightAware ADS-B
04:50PM 32.0230 -95.2460 286° West 394 453 32,000 -900 Descending FlightAware ADS-B
04:50PM 32.0236 -95.2480 289° West 395 455 32,000 -1,020 Level FlightAware ADS-B
04:50PM 32.0419 -95.3068 290° West 391 450 31,500 -1,020 Descending FlightAware ADS-B
04:50PM 32.0425 -95.3088 289° West 391 450 31,500 -1,020 Level FlightAware ADS-B
04:51PM 32.0608 -95.3688 290° West 387 445 31,000 -1,020 Descending FlightAware ADS-B
04:51PM 32.0611 -95.3698 289° West 387 445 31,000 -1,020 Level FlightAware ADS-B
04:51PM 32.0793 -95.4297 290° West 385 443 30,500 -1,080 Descending FlightAware ADS-B
04:52PM 32.0994 -95.4962 290° West 385 443 29,900 -1,080 Descending FlightAware ADS-B
04:52PM 32.1065 -95.5197 290° West 385 443 29,700 -1,020 Descending FlightAware ADS-B
04:52PM 32.1175 -95.5562 290° West 390 449 29,400 -1,020 Descending FlightAware ADS-B
04:53PM 32.1317 -95.6035 290° West 392 451 29,000 -1,020 Descending FlightAware ADS-B
04:53PM 32.1359 -95.6178 289° West 394 453 28,900 -1,020 Descending FlightAware ADS-B
04:53PM 32.1547 -95.6804 290° West 394 453 28,400 -960 Descending FlightAware ADS-B
04:54PM 32.1672 -95.7223 289° West 398 458 28,100 -1,020 Descending FlightAware ADS-B
04:54PM 32.1733 -95.7430 289° West 405 466 27,900 -1,260 Descending FlightAware ADS-B
04:54PM 32.1940 -95.8137 289° West 411 473 27,200 -1,320 Descending FlightAware ADS-B
04:55PM 32.1965 -95.8222 289° West 409 471 27,100 -2,460 Descending FlightAware ADS-B
04:55PM 32.2140 -95.8809 289° West 411 473 25,900 -3,480 Descending FlightAware ADS-B
04:56PM 32.2349 -95.9504 290° West 410 472 23,600 -4,020 Descending FlightAware ADS-B
04:56PM 32.2553 -96.0189 289° West 401 461 21,500 -4,080 Descending FlightAware ADS-B
04:57PM 32.2740 -96.0820 289° West 386 444 19,200 -4,740 Descending FlightAware
04:57PM 32.2783 -96.0969 289° West 386 444 18,500 -5,280 Descending FlightAware ADS-B
04:57PM 32.2970 -96.1610 289° West 376 433 15,700 -4,680 Descending FlightAware
04:58PM 32.3180 -96.2340 289° West 359 413 12,800 -3,480 Descending FlightAware
04:59PM 32.3410 -96.3140 289° West 321 369 10,800 -1,440 Descending FlightAware
04:59PM 32.3580 -96.3740 289° West 269 310 10,800  Level FlightAware
05:00PM 32.3760 -96.4320 290° West 248 285 10,800 -360 Level FlightAware
05:01PM 32.3990 -96.4800 300° West 249 287 10,300 -960 Descending FlightAware
05:01PM 32.4180 -96.5160 302° West 256 295 9,700 -1,200 Descending FlightAware
05:02PM 32.4330 -96.5460 301° West 260 299 9,200 -1,140 Descending FlightAware
05:02PM 32.4520 -96.5810 303° West 257 296 8,700 -1,140 Descending FlightAware
05:03PM 32.4690 -96.6110 304° West 250 288 8,200 -1,140 Descending FlightAware
05:03PM 32.4880 -96.6450 304° West 240 276 7,700 -1,140 Descending FlightAware
05:04PM 32.5050 -96.6770 302° West 237 273 7,100 -1,140 Descending FlightAware
05:04PM 32.5200 -96.7040 303° West 233 268 6,700 -1,020 Descending FlightAware
05:05PM 32.5370 -96.7350 303° West 237 273 6,200 -1,140 Descending FlightAware
05:05PM 32.5530 -96.7640 303° West 228 262 5,700 -1,200 Descending FlightAware
05:05PM 32.5700 -96.7950 303° West 227 261 5,100 -900 Descending FlightAware
05:06PM 32.5860 -96.8260 301° West 226 260 4,800 -360 Descending FlightAware
05:06PM 32.6000 -96.8510 304° West 230 265 4,800  Level FlightAware
05:07PM 32.6180 -96.8830 304° West 226 260 4,800  Level FlightAware
05:07PM 32.6330 -96.9110 302° West 221 254 4,800  Level FlightAware
05:08PM 32.6430 -96.9300 302° West 227 261 4,800  Level FlightAware
05:08PM 32.6580 -96.9540 307° West 222 255 4,800 -180 Level FlightAware
05:08PM 32.6660 -96.9610 324° Northwest 216 249 4,700 -600 Descending FlightAware
05:09PM 32.6840 -96.9710 335° Northwest 204 235 4,500 -1,080 Descending FlightAware
05:09PM 32.7060 -96.9820 337° Northwest 199 229 3,900 -1,020 Descending FlightAware
05:09PM 32.7290 -96.9940 336° Northwest 176 203 3,600 -1,020 Descending FlightAware
05:10PM 32.7510 -97.0040 339° North 155 178 2,900 -1,440 Descending FlightAware
05:10PM 32.7670 -97.0130 335° Northwest 159 183 2,300 -1,140 Descending FlightAware
05:11PM 32.7870 -97.0230 337° Northwest 149 171 1,900 -540 Descending FlightAware
05:11PM 32.7980 -97.0260 347° North 159 183 1,900 -240 Level FlightAware
05:11PM 32.8030 -97.0260 360° North 161 185 1,800 -660 Descending FlightAware
05:12PM 32.8050 -97.0260 360° North 144 166 1,300 -480 Descending FlightAware
05:12PM 32.7890 -97.0260 180° South 144 166 1,300 -480 Level FlightAware
05:13PM 32.8667 -97.0167 180° South 112 129 900 -780 Descending Dallas / Fort Worth TRACON
05:15PM 32.8833 -97.0333 308° West  Level FlightAware Approximate
05:22PM 32.8968 -97.0380 308° West  Level Estimated